createdAt,value
2022-09-07T00:00:24.129Z,21.68
2022-09-07T00:05:28.272Z,21.02
2022-09-07T00:10:32.423Z,20.62
2022-09-07T00:15:36.600Z,20.40
2022-09-07T00:20:40.756Z,20.27
2022-09-07T00:25:44.909Z,20.13
2022-09-07T00:30:49.094Z,19.87
2022-09-07T00:35:53.234Z,19.66
2022-09-07T00:40:57.379Z,19.55
2022-09-07T00:46:01.568Z,19.40
2022-09-07T00:51:05.721Z,19.21
2022-09-07T00:56:09.857Z,19.05
2022-09-07T01:01:14.002Z,18.90
2022-09-07T01:06:18.152Z,18.69
2022-09-07T01:11:22.379Z,18.57
2022-09-07T01:16:26.544Z,18.44
2022-09-07T01:21:30.676Z,18.32
2022-09-07T01:26:34.829Z,18.26
2022-09-07T01:31:37.160Z,18.20
2022-09-07T01:36:41.232Z,18.13
2022-09-07T01:41:43.520Z,18.01
2022-09-07T01:46:47.698Z,17.92
2022-09-07T01:51:51.852Z,17.86
2022-09-07T01:56:55.988Z,17.74
2022-09-07T02:02:00.251Z,17.63
2022-09-07T02:07:04.321Z,17.53
2022-09-07T02:12:08.477Z,17.51
2022-09-07T02:17:12.645Z,17.59
2022-09-07T02:22:16.788Z,17.61
2022-09-07T02:27:20.945Z,17.54
2022-09-07T02:32:25.098Z,17.54
2022-09-07T02:37:29.253Z,17.58
2022-09-07T02:42:33.448Z,17.52
2022-09-07T02:47:37.693Z,17.57
2022-09-07T02:52:41.754Z,17.59
2022-09-07T02:57:45.881Z,17.47
2022-09-07T03:07:54.207Z,17.30
2022-09-07T03:12:58.378Z,17.23
2022-09-07T03:18:02.585Z,17.16
2022-09-07T03:23:06.674Z,17.03
2022-09-07T03:28:10.870Z,16.96
2022-09-07T03:33:13.120Z,16.91
2022-09-07T03:38:17.306Z,16.71
2022-09-07T03:43:21.447Z,16.63
2022-09-07T03:48:25.599Z,16.65
2022-09-07T03:53:29.775Z,16.47
2022-09-07T03:58:33.969Z,16.40
2022-09-07T04:03:38.106Z,16.36
2022-09-07T04:08:42.233Z,16.29
2022-09-07T04:13:46.414Z,16.20
2022-09-07T04:18:50.652Z,16.17
2022-09-07T04:23:54.702Z,16.07
2022-09-07T04:28:58.904Z,16.12
2022-09-07T04:34:03.033Z,15.96
2022-09-07T04:39:07.239Z,15.96
2022-09-07T04:44:16.082Z,15.96
2022-09-07T04:49:15.535Z,15.91
2022-09-07T04:54:19.679Z,15.91
2022-09-07T04:59:23.844Z,15.91
2022-09-07T05:04:27.980Z,15.85
2022-09-07T05:09:32.166Z,15.81
2022-09-07T05:14:36.308Z,15.81
2022-09-07T05:19:38.612Z,15.84
2022-09-07T05:24:42.730Z,15.80
2022-09-07T05:34:52.271Z,15.74
2022-09-07T05:39:53.412Z,15.80
2022-09-07T05:44:57.519Z,15.85
2022-09-07T05:50:01.662Z,15.95
2022-09-07T05:55:28.416Z,16.07
2022-09-07T06:00:10.004Z,16.14
2022-09-07T06:05:14.137Z,16.30
2022-09-07T06:10:45.349Z,16.56
2022-09-07T06:15:22.449Z,16.79
2022-09-07T06:20:26.770Z,16.84
2022-09-07T06:25:30.825Z,16.91
2022-09-07T06:30:34.945Z,17.02
2022-09-07T06:35:39.091Z,17.08
2022-09-07T06:40:43.255Z,17.16
2022-09-07T06:45:47.724Z,17.25
2022-09-07T06:50:51.570Z,17.41
2022-09-07T06:55:55.796Z,17.63
2022-09-07T07:01:00.056Z,17.81
2022-09-07T07:06:04.042Z,17.93
2022-09-07T07:11:08.233Z,18.20
2022-09-07T07:16:10.600Z,18.55
2022-09-07T07:21:14.672Z,18.78
2022-09-07T07:26:16.920Z,19.08
2022-09-07T07:31:21.062Z,19.35
2022-09-07T07:36:25.254Z,19.59
2022-09-07T07:46:33.607Z,20.22
2022-09-07T07:56:41.856Z,20.41
2022-09-07T08:01:46.188Z,20.59
2022-09-07T08:06:50.233Z,20.90
2022-09-07T08:11:54.391Z,20.98
2022-09-07T08:16:58.508Z,20.91
2022-09-07T08:22:02.667Z,21.11
2022-09-07T08:27:06.834Z,21.54
2022-09-07T08:32:10.993Z,21.82
2022-09-07T08:37:15.142Z,21.91
2022-09-07T08:42:19.299Z,22.03
2022-09-07T08:52:25.731Z,22.31
2022-09-07T08:57:28.027Z,22.22
2022-09-07T09:02:44.103Z,22.24
2022-09-07T09:07:50.362Z,22.14
2022-09-07T09:13:01.503Z,22.47
2022-09-07T09:18:14.449Z,22.91
2022-09-07T09:23:23.817Z,22.85
2022-09-07T09:28:33.433Z,22.90
2022-09-07T09:33:37.290Z,22.93
2022-09-07T09:38:39.583Z,23.01
2022-09-07T09:43:43.818Z,23.10
2022-09-07T09:48:47.871Z,23.09
2022-09-07T09:53:52.048Z,22.80
2022-09-07T09:59:05.876Z,22.47
2022-09-07T10:04:00.950Z,22.84
2022-09-07T10:09:02.594Z,23.10
2022-09-07T10:14:06.778Z,23.15
2022-09-07T10:19:10.910Z,23.53
2022-09-07T10:24:15.062Z,23.60
2022-09-07T10:29:19.235Z,23.77
2022-09-07T10:34:26.821Z,23.87
2022-09-07T10:39:27.579Z,23.85
2022-09-07T10:44:31.712Z,24.32
2022-09-07T10:49:35.868Z,24.51
2022-09-07T10:54:40.050Z,24.51
2022-09-07T11:00:08.566Z,24.21
2022-09-07T11:04:48.332Z,24.17
2022-09-07T11:09:52.551Z,24.00
2022-09-07T11:14:56.682Z,24.44
2022-09-07T11:20:00.819Z,24.56
2022-09-07T11:25:30.836Z,24.65
2022-09-07T11:30:09.150Z,24.16
2022-09-07T11:35:13.301Z,24.03
2022-09-07T11:45:21.632Z,23.99
2022-09-07T11:50:23.880Z,24.41
2022-09-07T11:55:28.011Z,24.53
2022-09-07T12:00:30.354Z,24.62
2022-09-07T12:05:34.485Z,24.53
2022-09-07T12:10:38.635Z,24.67
2022-09-07T12:15:42.815Z,24.52
2022-09-07T12:20:46.948Z,24.66
2022-09-07T12:25:51.087Z,24.99
2022-09-07T12:30:55.340Z,24.91
2022-09-07T12:35:59.398Z,25.03
2022-09-07T12:41:03.629Z,25.30
2022-09-07T12:46:07.842Z,25.48
2022-09-07T12:51:11.975Z,25.35
2022-09-07T12:56:16.674Z,25.13
2022-09-07T13:01:20.291Z,25.05
2022-09-07T13:11:28.548Z,24.94
2022-09-07T13:17:15.972Z,24.86
2022-09-07T13:21:36.871Z,24.99
2022-09-07T13:26:41.038Z,24.93
2022-09-07T13:31:45.268Z,25.33
2022-09-07T13:36:49.333Z,25.23
2022-09-07T13:41:53.501Z,25.07
2022-09-07T13:46:55.760Z,24.74
2022-09-07T13:51:59.917Z,24.92
2022-09-07T13:57:02.194Z,24.93
2022-09-07T14:02:06.417Z,24.61
2022-09-07T14:07:10.491Z,24.70
2022-09-07T14:12:14.653Z,24.68
2022-09-07T14:17:18.816Z,24.83
2022-09-07T14:22:23.003Z,24.78
2022-09-07T14:27:27.142Z,24.56
2022-09-07T14:32:31.422Z,24.53
2022-09-07T14:37:35.459Z,24.60
2022-09-07T14:42:39.650Z,24.86
2022-09-07T14:47:43.793Z,24.91
2022-09-07T14:53:34.284Z,24.94
2022-09-07T15:02:56.284Z,25.04
2022-09-07T15:13:04.618Z,25.30
2022-09-07T15:18:09.070Z,25.00
2022-09-07T15:23:18.030Z,25.01
2022-09-07T15:33:40.377Z,24.87
2022-09-07T15:39:01.272Z,24.77
2022-09-07T15:44:02.684Z,24.69
2022-09-07T15:49:13.836Z,24.63
2022-09-07T15:54:16.133Z,24.59
2022-09-07T15:59:20.238Z,25.34
2022-09-07T16:04:24.550Z,27.90
2022-09-07T16:09:28.596Z,29.87
2022-09-07T16:14:34.977Z,30.54
2022-09-07T16:19:40.861Z,30.12
2022-09-07T16:24:41.036Z,28.27
2022-09-07T16:29:45.180Z,29.02
2022-09-07T16:34:49.371Z,29.22
2022-09-07T16:39:53.568Z,27.75
2022-09-07T16:46:02.653Z,26.85
2022-09-07T16:50:02.023Z,26.01
2022-09-07T16:55:06.003Z,25.32
2022-09-07T17:00:10.172Z,24.54
2022-09-07T17:05:14.309Z,24.33
2022-09-07T17:10:18.484Z,24.09
2022-09-07T17:15:22.664Z,23.93
2022-09-07T17:20:28.258Z,23.74
2022-09-07T17:25:33.290Z,23.47
2022-09-07T17:30:35.119Z,23.32
2022-09-07T17:35:39.295Z,23.02
2022-09-07T17:40:41.537Z,22.54
2022-09-07T17:45:45.767Z,22.25
2022-09-07T17:50:47.980Z,21.97
2022-09-07T17:55:52.172Z,21.74
2022-09-07T18:00:56.310Z,21.45
2022-09-07T18:06:00.441Z,21.17
2022-09-07T18:16:08.795Z,20.68
2022-09-07T18:21:12.911Z,20.43
2022-09-07T18:26:17.083Z,20.15
2022-09-07T18:31:21.300Z,20.05
2022-09-07T18:36:25.440Z,19.90
2022-09-07T18:41:29.571Z,19.68
2022-09-07T18:46:34.714Z,19.57
2022-09-07T18:56:42.038Z,19.42
2022-09-07T19:01:46.337Z,19.29
2022-09-07T19:06:50.351Z,19.33
2022-09-07T19:11:54.539Z,19.25
2022-09-07T19:16:58.701Z,19.16
2022-09-07T19:22:02.824Z,19.01
2022-09-07T19:27:07.008Z,18.86
2022-09-07T19:32:11.148Z,18.78
2022-09-07T19:37:13.458Z,18.53
2022-09-07T19:42:17.607Z,18.28
2022-09-07T19:47:21.751Z,18.27
2022-09-07T19:52:25.887Z,18.27
2022-09-07T19:57:30.119Z,18.16
2022-09-07T20:02:34.244Z,17.92
2022-09-07T20:07:38.365Z,17.86
2022-09-07T20:12:42.551Z,17.88
2022-09-07T20:17:46.726Z,17.84
2022-09-07T20:22:50.889Z,17.78
2022-09-07T20:27:55.007Z,17.71
2022-09-07T20:32:59.213Z,17.59
2022-09-07T20:38:03.388Z,17.55
2022-09-07T20:43:07.504Z,17.55
2022-09-07T20:48:11.680Z,17.48
2022-09-07T20:53:15.808Z,17.43
2022-09-07T20:58:19.970Z,17.32
2022-09-07T21:03:24.143Z,17.24
2022-09-07T21:08:28.331Z,17.17
2022-09-07T21:13:32.590Z,17.05
2022-09-07T21:18:36.633Z,16.98
2022-09-07T21:23:40.751Z,16.90
2022-09-07T21:28:43.052Z,16.75
2022-09-07T21:33:47.221Z,16.69
2022-09-07T21:38:49.496Z,16.73
2022-09-07T21:43:53.615Z,16.70
2022-09-07T21:48:57.794Z,16.69
2022-09-07T21:54:01.966Z,16.61
2022-09-07T21:59:06.127Z,16.53
2022-09-07T22:04:10.291Z,16.44
2022-09-07T22:09:14.420Z,16.32
2022-09-07T22:14:18.575Z,16.27
2022-09-07T22:19:22.780Z,16.26
2022-09-07T22:24:26.903Z,16.18
2022-09-07T22:29:31.097Z,16.18
2022-09-07T22:34:35.244Z,16.14
2022-09-07T22:39:39.488Z,16.11
2022-09-07T22:44:43.545Z,16.06
2022-09-07T22:49:47.725Z,16.00
2022-09-07T22:54:51.883Z,16.01
2022-09-07T22:59:56.034Z,16.07
2022-09-07T23:05:00.390Z,16.12
2022-09-07T23:10:04.380Z,16.19
2022-09-07T23:15:08.518Z,16.22
2022-09-07T23:20:12.720Z,16.23
2022-09-07T23:25:14.990Z,16.16
2022-09-07T23:30:19.174Z,16.13
2022-09-07T23:35:23.295Z,16.18
2022-09-07T23:40:27.427Z,16.20
2022-09-07T23:45:31.591Z,16.20
2022-09-07T23:50:35.748Z,16.19
2022-09-07T23:55:39.918Z,16.20
